Time;durP1;ratioP1;P1;durP2;ratioP2;P2;SDS_P1;SDS_P2;PMS_P1;PMS_P2;Temp;Humidity;BMP_temperature;BMP_pressure;BME280_temperature;BME280_humidity;BME280_pressure;Samples;Min_cycle;Max_cycle;Signal;HPM_P1;HPM_P2
2021/01/30 00:01:26;;;;;;;22.77;10.50;;;-0.80;99.90;;;;;;4993254;28;20445;-73
2021/01/30 00:03:52;;;;;;;24.15;10.90;;;-0.80;99.90;;;;;;4994131;28;20045;-74
2021/01/30 00:06:17;;;;;;;20.92;10.45;;;-0.70;99.90;;;;;;5010082;28;20409;-74
2021/01/30 00:08:43;;;;;;;21.73;11.07;;;-0.80;99.90;;;;;;4994902;28;20520;-73
2021/01/30 00:11:12;;;;;;;22.88;10.88;;;-0.90;99.90;;;;;;5011935;28;20040;-74
2021/01/30 00:13:41;;;;;;;21.55;10.85;;;-0.80;99.90;;;;;;5013552;28;20042;-74
2021/01/30 00:16:06;;;;;;;24.95;11.48;;;-0.90;99.90;;;;;;4999048;28;20030;-74
2021/01/30 00:18:32;;;;;;;21.58;10.65;;;-0.90;99.90;;;;;;4998829;28;20038;-74
2021/01/30 00:20:58;;;;;;;23.45;10.60;;;-0.90;99.90;;;;;;4998981;28;20040;-74
2021/01/30 00:23:23;;;;;;;22.25;11.52;;;-0.80;99.90;;;;;;4998206;28;20547;-74
2021/01/30 00:25:49;;;;;;;21.98;10.52;;;-0.80;99.90;;;;;;4998197;28;20076;-74
2021/01/30 00:28:15;;;;;;;20.90;10.30;;;-0.90;99.90;;;;;;4999039;28;20045;-74
2021/01/30 00:30:41;;;;;;;23.80;11.90;;;-0.90;99.90;;;;;;4997061;28;20026;-74
2021/01/30 00:33:08;;;;;;;23.65;11.80;;;-0.90;99.90;;;;;;5014253;28;20480;-74
2021/01/30 00:35:35;;;;;;;23.15;11.68;;;-0.90;99.90;;;;;;4996678;28;20393;-73
2021/01/30 00:38:02;;;;;;;23.88;12.15;;;-0.90;99.90;;;;;;4997398;28;20520;-73
2021/01/30 00:40:28;;;;;;;25.30;11.32;;;-0.80;99.90;;;;;;4998256;28;20025;-73
2021/01/30 00:42:54;;;;;;;29.23;12.05;;;-0.80;99.90;;;;;;5013666;28;20033;-74
2021/01/30 00:45:23;;;;;;;27.33;13.25;;;-0.80;99.90;;;;;;4998043;28;20048;-74
2021/01/30 00:47:49;;;;;;;26.40;12.57;;;-0.80;99.90;;;;;;5013809;28;20030;-75
2021/01/30 00:50:17;;;;;;;22.38;12.00;;;-0.90;99.90;;;;;;5013786;28;20041;-74
2021/01/30 00:52:43;;;;;;;24.58;12.07;;;-0.90;99.90;;;;;;4998322;28;20033;-74
2021/01/30 00:55:18;;;;;;;26.85;12.40;;;-0.80;99.90;;;;;;5013263;28;20037;-74
2021/01/30 00:57:45;;;;;;;25.13;11.95;;;-0.90;99.90;;;;;;4998396;28;20030;-74
2021/01/30 01:00:15;;;;;;;26.80;12.35;;;-0.80;99.90;;;;;;4998443;28;20030;-75
2021/01/30 01:02:40;;;;;;;25.10;12.38;;;-0.80;99.90;;;;;;4998515;28;20573;-74
2021/01/30 01:05:07;;;;;;;28.20;12.30;;;-0.80;99.90;;;;;;5012277;28;20791;-74
2021/01/30 01:07:33;;;;;;;23.65;11.80;;;-0.80;99.90;;;;;;5013197;28;20045;-74
2021/01/30 01:09:58;;;;;;;29.45;12.05;;;-0.90;99.90;;;;;;4996249;28;20738;-74
2021/01/30 01:12:24;;;;;;;27.63;12.18;;;-0.90;99.90;;;;;;5013269;28;20034;-75
2021/01/30 01:14:50;;;;;;;27.05;11.95;;;-1.00;99.90;;;;;;4995717;28;20034;-75
2021/01/30 01:17:15;;;;;;;24.00;12.05;;;-1.10;99.90;;;;;;4997958;28;20148;-75
2021/01/30 01:19:41;;;;;;;23.58;11.38;;;-1.10;99.90;;;;;;4997132;28;20034;-74
2021/01/30 01:22:07;;;;;;;24.40;12.00;;;-1.10;99.90;;;;;;5011864;28;20034;-74
2021/01/30 01:24:32;;;;;;;23.00;11.43;;;-1.10;99.90;;;;;;4997005;28;20994;-74
2021/01/30 01:26:58;;;;;;;25.27;11.32;;;-1.10;99.90;;;;;;4997086;28;20699;-74
2021/01/30 01:29:24;;;;;;;23.25;11.95;;;-1.10;99.90;;;;;;4997025;28;20044;-75
2021/01/30 01:31:54;;;;;;;23.92;11.32;;;-1.10;99.90;;;;;;4997140;28;20030;-75
2021/01/30 01:34:22;;;;;;;21.98;10.73;;;-1.00;99.90;;;;;;4995832;28;20066;-74
2021/01/30 01:37:05;;;;;;;21.70;9.90;;;-1.10;99.90;;;;;;5009237;28;20486;-74
2021/01/30 01:39:33;;;;;;;22.05;10.40;;;-1.10;99.90;;;;;;4996440;28;20046;-74
2021/01/30 01:42:07;;;;;;;18.25;10.02;;;-1.10;99.90;;;;;;4997033;28;20029;-74
2021/01/30 01:44:33;;;;;;;24.15;11.63;;;-1.10;99.90;;;;;;4996886;28;20550;-74
2021/01/30 01:47:00;;;;;;;24.25;10.85;;;-1.10;99.90;;;;;;4995156;28;20045;-74
2021/01/30 01:49:30;;;;;;;18.25;9.27;;;-1.10;99.90;;;;;;4995428;28;20478;-74
2021/01/30 01:52:02;;;;;;;23.05;10.75;;;-1.10;99.90;;;;;;4995809;28;20038;-74
2021/01/30 01:54:29;;;;;;;22.98;10.10;;;-1.20;99.90;;;;;;5012541;28;20592;-74
2021/01/30 01:57:10;;;;;;;19.45;9.90;;;-1.20;99.90;;;;;;4996223;28;20048;-74
2021/01/30 01:59:41;;;;;;;19.98;9.10;;;-1.20;99.90;;;;;;4996127;28;20030;-73
2021/01/30 02:02:08;;;;;;;19.83;9.43;;;-1.20;99.90;;;;;;4995512;28;20109;-73
2021/01/30 02:04:34;;;;;;;17.55;8.75;;;-1.20;99.90;;;;;;4996984;28;20034;-73
2021/01/30 02:07:00;;;;;;;17.05;8.85;;;-1.10;99.90;;;;;;4994555;28;20045;-74
2021/01/30 02:09:27;;;;;;;17.48;8.68;;;-1.20;99.90;;;;;;4995274;28;20040;-74
2021/01/30 02:12:06;;;;;;;13.90;7.53;;;-1.10;99.90;;;;;;4997211;28;20438;-73
2021/01/30 02:14:37;;;;;;;14.70;7.30;;;-1.20;99.90;;;;;;4996012;28;20397;-73
2021/01/30 02:17:30;;;;;;;20.45;7.35;;;-1.30;99.90;;;;;;5010230;28;20038;-74
2021/01/30 02:20:25;;;;;;;14.25;6.82;;;-1.30;99.90;;;;;;5003939;28;20057;-73
2021/01/30 02:23:09;;;;;;;15.43;7.97;;;-1.30;99.90;;;;;;5011584;28;20049;-73
2021/01/30 02:26:15;;;;;;;13.70;7.60;;;-1.30;99.90;;;;;;4996491;28;20051;-74
2021/01/30 02:28:47;;;;;;;15.52;7.53;;;-1.40;99.90;;;;;;5011573;28;20084;-74
2021/01/30 02:31:50;;;;;;;15.63;7.53;;;-1.40;99.90;;;;;;4997086;28;20034;-74
2021/01/30 02:34:40;;;;;;;14.30;7.18;;;-1.40;99.90;;;;;;4995582;28;20038;-74
2021/01/30 02:37:14;;;;;;;12.90;7.22;;;-1.40;99.90;;;;;;4996431;28;20037;-74
2021/01/30 02:39:50;;;;;;;13.77;7.40;;;-1.50;99.90;;;;;;4996987;28;20069;-74
2021/01/30 02:42:20;;;;;;;16.52;7.53;;;-1.60;99.90;;;;;;4990735;28;20121;-74
2021/01/30 02:44:55;;;;;;;18.20;7.63;;;-1.60;99.90;;;;;;4995240;28;20127;-74
2021/01/30 02:47:23;;;;;;;16.23;7.72;;;-1.60;99.90;;;;;;4993089;28;20034;-74
2021/01/30 02:49:56;;;;;;;16.20;7.22;;;-1.60;99.90;;;;;;4996681;28;20026;-74
2021/01/30 02:52:25;;;;;;;14.98;7.97;;;-1.70;99.90;;;;;;4996074;28;20172;-74
2021/01/30 02:54:56;;;;;;;16.50;8.45;;;-1.60;99.90;;;;;;4997014;28;20025;-73
2021/01/30 02:57:24;;;;;;;16.13;8.07;;;-1.60;99.90;;;;;;4996150;28;20030;-74
2021/01/30 02:59:53;;;;;;;15.27;8.10;;;-1.60;99.90;;;;;;4996793;28;20037;-73
2021/01/30 03:02:21;;;;;;;21.92;9.32;;;-1.60;99.90;;;;;;4979331;28;20045;-73
2021/01/30 03:04:48;;;;;;;13.65;7.93;;;-1.50;99.90;;;;;;5010138;28;20057;-73
2021/01/30 03:07:52;;;;;;;19.45;8.82;;;-1.50;99.90;;;;;;5011216;28;20080;-73
2021/01/30 03:10:23;;;;;;;19.80;8.70;;;-1.50;99.90;;;;;;4996441;28;20474;-73
2021/01/30 03:13:18;;;;;;;15.18;8.40;;;-1.60;99.90;;;;;;4996161;28;20855;-73
2021/01/30 03:15:59;;;;;;;17.90;9.10;;;-1.50;99.90;;;;;;4994397;28;20260;-73
2021/01/30 03:18:33;;;;;;;15.10;8.13;;;-1.50;99.90;;;;;;4996732;28;20145;-73
2021/01/30 03:21:00;;;;;;;16.65;8.95;;;-1.50;99.90;;;;;;4993903;28;20860;-74
2021/01/30 03:23:27;;;;;;;15.73;8.63;;;-1.40;99.90;;;;;;4996547;28;20034;-74
2021/01/30 03:25:54;;;;;;;14.18;8.15;;;-1.40;99.90;;;;;;5010742;28;20103;-74
2021/01/30 03:28:20;;;;;;;14.55;8.38;;;-1.40;99.90;;;;;;4994585;28;20050;-74
2021/01/30 03:30:47;;;;;;;15.75;8.13;;;-1.40;99.90;;;;;;4996455;28;20062;-74
2021/01/30 03:33:13;;;;;;;18.00;8.13;;;-1.40;99.90;;;;;;4996520;28;20038;-74
2021/01/30 03:35:39;;;;;;;16.40;8.77;;;-1.40;99.90;;;;;;5009810;28;20088;-74
2021/01/30 03:38:06;;;;;;;15.02;7.22;;;-1.30;99.90;;;;;;4996195;28;20041;-74
2021/01/30 03:40:32;;;;;;;12.90;7.25;;;-1.20;99.90;;;;;;4995136;28;20632;-74
2021/01/30 03:42:58;;;;;;;14.27;7.55;;;-1.30;99.90;;;;;;4995728;28;20714;-74
2021/01/30 03:45:28;;;;;;;13.70;6.97;;;-1.30;99.90;;;;;;4995939;28;20117;-74
2021/01/30 03:47:53;;;;;;;14.00;7.45;;;-1.30;99.90;;;;;;4999387;28;20046;-74
2021/01/30 03:50:20;;;;;;;13.75;7.05;;;-1.30;99.90;;;;;;5014555;28;20041;-74
2021/01/30 03:52:46;;;;;;;14.93;7.53;;;-1.30;99.90;;;;;;4999695;28;20029;-74
2021/01/30 03:55:12;;;;;;;15.02;7.60;;;-1.20;99.90;;;;;;4999552;28;20030;-74
2021/01/30 03:57:38;;;;;;;12.60;7.43;;;-1.30;99.90;;;;;;4997998;28;20044;-74
2021/01/30 04:00:09;;;;;;;16.85;7.97;;;-1.30;99.90;;;;;;4999686;28;20037;-73
2021/01/30 04:02:38;;;;;;;18.40;8.40;;;-1.30;99.90;;;;;;5000031;28;20100;-73
2021/01/30 04:05:04;;;;;;;13.02;7.15;;;-1.30;99.90;;;;;;4998599;28;20474;-74
2021/01/30 04:07:30;;;;;;;14.60;7.45;;;-1.30;99.90;;;;;;4998646;28;20034;-74
2021/01/30 04:09:56;;;;;;;16.67;7.90;;;-1.30;99.90;;;;;;4999118;28;20046;-73
2021/01/30 04:12:22;;;;;;;14.43;7.75;;;-1.30;99.90;;;;;;4999299;28;20044;-73
2021/01/30 04:14:47;;;;;;;15.30;8.57;;;-1.30;99.90;;;;;;4997442;28;20026;-74
2021/01/30 04:17:13;;;;;;;15.80;9.13;;;-1.40;99.90;;;;;;4999057;28;20030;-74
2021/01/30 04:19:39;;;;;;;14.77;8.10;;;-1.40;99.90;;;;;;4998185;28;20569;-73
2021/01/30 04:22:06;;;;;;;16.73;8.55;;;-1.40;99.90;;;;;;5014771;28;20049;-73
2021/01/30 04:24:32;;;;;;;21.33;8.98;;;-1.40;99.90;;;;;;5014171;28;20517;-73
2021/01/30 04:26:58;;;;;;;19.15;9.48;;;-1.30;99.90;;;;;;4998300;28;20438;-73
2021/01/30 04:29:24;;;;;;;16.33;8.80;;;-1.20;99.90;;;;;;4999139;28;20038;-73
2021/01/30 04:31:57;;;;;;;20.30;9.70;;;-1.30;99.90;;;;;;4997583;28;20032;-73
2021/01/30 04:34:23;;;;;;;19.77;9.98;;;-1.30;99.90;;;;;;5013719;28;20406;-73
2021/01/30 04:36:49;;;;;;;18.88;9.73;;;-1.30;99.90;;;;;;4998211;28;20116;-73
2021/01/30 04:39:15;;;;;;;18.60;9.77;;;-1.20;99.90;;;;;;4999146;28;20120;-73
2021/01/30 04:41:41;;;;;;;18.90;10.55;;;-1.10;99.90;;;;;;4998198;28;20116;-73
2021/01/30 04:44:20;;;;;;;18.35;9.57;;;-1.20;99.90;;;;;;4998814;28;20057;-73
2021/01/30 04:47:07;;;;;;;16.75;9.45;;;-1.20;99.90;;;;;;4998244;28;20852;-73
2021/01/30 04:50:11;;;;;;;20.70;9.77;;;-1.20;99.90;;;;;;4998399;28;20133;-73
2021/01/30 04:53:01;;;;;;;18.80;8.93;;;-1.20;99.90;;;;;;4998708;28;20053;-73
2021/01/30 04:55:48;;;;;;;17.83;9.00;;;-1.10;99.90;;;;;;5013499;28;20038;-72
2021/01/30 04:58:47;;;;;;;19.30;9.43;;;-1.20;99.90;;;;;;4990622;28;20033;-72
2021/01/30 05:01:20;;;;;;;25.10;10.82;;;-1.20;99.90;;;;;;5013795;28;20034;-73
2021/01/30 05:04:06;;;;;;;22.30;10.73;;;-1.10;99.90;;;;;;4997171;28;20037;-74
2021/01/30 05:07:10;;;;;;;19.00;10.10;;;-1.10;99.90;;;;;;5009235;28;20107;-73
2021/01/30 05:10:04;;;;;;;19.30;10.13;;;-1.10;99.90;;;;;;4994416;28;20026;-73
2021/01/30 05:12:53;;;;;;;22.13;10.55;;;-1.10;99.90;;;;;;4998246;28;20449;-73
2021/01/30 05:15:38;;;;;;;21.63;11.20;;;-1.10;99.90;;;;;;4997064;28;20025;-73
2021/01/30 05:18:20;;;;;;;20.88;10.07;;;-1.10;99.90;;;;;;4997545;28;20096;-73
2021/01/30 05:21:03;;;;;;;26.50;10.77;;;-1.10;99.90;;;;;;4997717;28;20035;-73
2021/01/30 05:23:33;;;;;;;18.70;9.98;;;-1.20;99.90;;;;;;4996353;28;20034;-73
2021/01/30 05:26:40;;;;;;;24.75;11.63;;;-1.20;99.90;;;;;;4997002;28;20121;-73
2021/01/30 05:29:27;;;;;;;24.63;11.27;;;-1.20;99.90;;;;;;4976370;28;20502;-73
2021/01/30 05:32:22;;;;;;;24.75;11.45;;;-1.30;99.90;;;;;;5013088;28;20080;-73
2021/01/30 05:35:10;;;;;;;28.85;11.77;;;-1.30;99.90;;;;;;4956804;28;20501;-73
2021/01/30 05:38:07;;;;;;;23.77;12.18;;;-1.20;99.90;;;;;;4996569;28;20053;-73
2021/01/30 05:40:49;;;;;;;24.20;11.85;;;-1.30;99.90;;;;;;4983576;28;20050;-73
2021/01/30 05:43:38;;;;;;;27.08;12.65;;;-1.30;99.90;;;;;;4997006;28;20066;-73
2021/01/30 05:46:06;;;;;;;28.55;12.90;;;-1.30;99.90;;;;;;5012310;28;20049;-73
2021/01/30 05:48:42;;;;;;;30.05;13.40;;;-1.20;99.90;;;;;;4997056;28;20683;-73
2021/01/30 05:51:40;;;;;;;30.70;13.65;;;-1.20;99.90;;;;;;4997741;28;20033;-74
2021/01/30 05:54:07;;;;;;;26.40;12.95;;;-1.30;99.90;;;;;;4961902;28;20118;-73
2021/01/30 05:56:42;;;;;;;25.02;12.93;;;-1.20;99.90;;;;;;4994919;28;20053;-73
2021/01/30 05:59:11;;;;;;;30.35;13.38;;;-1.20;99.90;;;;;;4992007;28;20041;-73
2021/01/30 06:01:37;;;;;;;30.13;13.38;;;-1.10;99.90;;;;;;4993857;28;20057;-73
2021/01/30 06:04:11;;;;;;;28.40;12.98;;;-1.20;99.90;;;;;;5001851;28;20053;-73
2021/01/30 06:06:51;;;;;;;32.35;13.50;;;-1.20;99.90;;;;;;4995766;28;20041;-73
2021/01/30 06:09:40;;;;;;;25.20;12.63;;;-1.20;99.90;;;;;;4991441;28;20066;-73
2021/01/30 06:12:22;;;;;;;29.83;12.65;;;-1.30;99.90;;;;;;4995651;28;20044;-74
2021/01/30 06:14:48;;;;;;;27.42;12.07;;;-1.40;99.90;;;;;;5003660;28;20120;-73
2021/01/30 06:17:29;;;;;;;28.85;12.23;;;-1.40;99.90;;;;;;5008732;28;20029;-74
2021/01/30 06:20:33;;;;;;;31.05;13.02;;;-1.40;99.90;;;;;;4990610;28;20184;-73
2021/01/30 06:23:02;;;;;;;31.83;12.57;;;-1.40;99.90;;;;;;4987149;28;20691;-73
2021/01/30 06:25:34;;;;;;;28.73;12.70;;;-1.40;99.90;;;;;;5011223;28;20052;-76
2021/01/30 06:28:25;;;;;;;26.75;12.57;;;-1.50;99.90;;;;;;5006318;28;20561;-76
2021/01/30 06:30:52;;;;;;;35.45;12.95;;;-1.50;99.90;;;;;;4995656;28;20034;-73
2021/01/30 06:33:30;;;;;;;30.55;13.15;;;-1.40;99.90;;;;;;4992627;28;20053;-73
2021/01/30 06:36:07;;;;;;;31.20;13.02;;;-1.40;99.90;;;;;;4994743;28;20096;-73
2021/01/30 06:38:39;;;;;;;32.35;14.50;;;-1.40;99.90;;;;;;5005497;28;20490;-73
2021/01/30 06:41:14;;;;;;;30.23;13.38;;;-1.40;99.90;;;;;;4997086;28;20620;-74
2021/01/30 06:43:58;;;;;;;30.75;13.20;;;-1.40;99.90;;;;;;4995673;28;20823;-74
2021/01/30 06:46:25;;;;;;;34.15;13.25;;;-1.40;99.90;;;;;;4991690;28;20060;-74
2021/01/30 06:48:56;;;;;;;32.40;13.68;;;-1.40;99.90;;;;;;5007561;28;20057;-74
2021/01/30 06:51:36;;;;;;;31.73;15.60;;;-1.30;99.90;;;;;;5003843;28;20091;-74
2021/01/30 06:54:24;;;;;;;31.63;14.40;;;-1.30;99.90;;;;;;4993141;28;20042;-74
2021/01/30 06:56:59;;;;;;;29.30;13.60;;;-1.30;99.90;;;;;;4998349;28;20048;-74
2021/01/30 06:59:29;;;;;;;29.80;13.00;;;-1.30;99.90;;;;;;4989241;28;20030;-74
2021/01/30 07:01:56;;;;;;;29.30;13.07;;;-1.20;99.90;;;;;;4995173;28;20147;-74
2021/01/30 07:04:27;;;;;;;37.80;17.42;;;-1.20;99.90;;;;;;5009910;28;20044;-75
2021/01/30 07:06:59;;;;;;;39.85;17.83;;;-1.10;99.90;;;;;;4990865;28;20443;-75
2021/01/30 07:09:36;;;;;;;32.65;15.82;;;-1.00;99.90;;;;;;4986251;28;20031;-75
2021/01/30 07:12:28;;;;;;;40.00;17.88;;;-1.00;99.90;;;;;;4983046;28;20034;-75
2021/01/30 07:15:18;;;;;;;41.97;18.83;;;-0.80;99.90;;;;;;4995151;28;20456;-75
2021/01/30 07:17:58;;;;;;;36.55;17.60;;;-0.80;99.90;;;;;;4992402;28;20053;-75
2021/01/30 07:20:26;;;;;;;29.55;14.60;;;-0.70;99.90;;;;;;5005085;28;20030;-76
2021/01/30 07:23:04;;;;;;;29.73;14.30;;;-0.70;99.90;;;;;;5011103;28;20065;-76
2021/01/30 07:25:46;;;;;;;30.20;13.52;;;-0.70;99.90;;;;;;4994015;28;20116;-76
2021/01/30 07:28:40;;;;;;;29.58;13.13;;;-0.60;99.90;;;;;;4996544;28;20073;-76
2021/01/30 07:31:32;;;;;;;28.50;12.95;;;-0.60;99.90;;;;;;4995330;28;20034;-76
2021/01/30 07:34:06;;;;;;;25.55;11.70;;;-0.50;99.90;;;;;;4993926;28;20548;-74
2021/01/30 07:36:48;;;;;;;24.83;11.63;;;-0.40;99.90;;;;;;4995326;28;20038;-75
2021/01/30 07:39:43;;;;;;;22.20;10.38;;;-0.30;99.90;;;;;;5010869;28;20846;-74
2021/01/30 07:42:19;;;;;;;21.90;10.90;;;-0.20;99.90;;;;;;4995052;28;20045;-74
2021/01/30 07:44:53;;;;;;;21.95;10.73;;;-0.20;99.90;;;;;;4995281;28;20169;-74
2021/01/30 07:47:29;;;;;;;21.63;11.15;;;-0.30;99.90;;;;;;5000221;28;20191;-74
2021/01/30 07:50:01;;;;;;;45.53;21.02;;;-0.30;99.90;;;;;;4995492;28;20038;-74
2021/01/30 07:52:41;;;;;;;19.98;10.10;;;-0.20;99.90;;;;;;5005794;28;20038;-74
2021/01/30 07:55:10;;;;;;;25.60;10.85;;;-0.20;99.90;;;;;;4992443;28;20030;-75
2021/01/30 07:58:07;;;;;;;55.75;21.92;;;-0.10;99.90;;;;;;5011642;28;20963;-73
2021/01/30 08:01:03;;;;;;;17.67;8.95;;;-0.10;99.90;;;;;;4992785;28;20041;-76
2021/01/30 08:04:06;;;;;;;20.25;10.25;;;0.00;99.90;;;;;;5007688;28;20303;-76
2021/01/30 08:07:00;;;;;;;27.38;12.10;;;0.10;99.90;;;;;;5007652;28;20568;-76
2021/01/30 08:09:52;;;;;;;21.88;9.63;;;-0.30;99.90;;;;;;5011539;28;20045;-70
2021/01/30 08:12:33;;;;;;;17.95;9.07;;;-0.30;99.90;;;;;;5005826;28;20038;-73
2021/01/30 08:15:02;;;;;;;18.77;9.65;;;-0.30;99.90;;;;;;5004629;28;20045;-73
2021/01/30 08:18:04;;;;;;;25.77;10.38;;;-0.20;99.90;;;;;;5002441;28;20038;-73
2021/01/30 08:21:05;;;;;;;16.55;9.15;;;-0.10;99.90;;;;;;5001889;28;20038;-73
2021/01/30 08:23:48;;;;;;;18.85;9.23;;;-0.20;99.90;;;;;;4981355;28;20102;-73
2021/01/30 08:26:25;;;;;;;15.70;8.35;;;-0.10;99.90;;;;;;5010570;28;20045;-72
2021/01/30 08:29:09;;;;;;;16.83;9.13;;;0.00;99.90;;;;;;5010393;28;20694;-74
2021/01/30 08:31:54;;;;;;;19.23;9.63;;;0.20;99.90;;;;;;4990119;28;20116;-75
2021/01/30 08:34:19;;;;;;;16.75;7.72;;;0.40;99.90;;;;;;5014436;28;20139;-74
2021/01/30 08:36:50;;;;;;;12.88;7.90;;;0.60;99.90;;;;;;5014070;28;20232;-74
2021/01/30 08:39:32;;;;;;;15.35;8.57;;;0.80;99.90;;;;;;4997155;28;20037;-75
2021/01/30 08:42:14;;;;;;;14.50;8.15;;;1.00;99.90;;;;;;4994826;28;20042;-72
2021/01/30 08:44:50;;;;;;;16.38;9.52;;;1.00;99.90;;;;;;5007845;28;20117;-75
2021/01/30 08:47:18;;;;;;;15.65;9.13;;;1.00;99.90;;;;;;5011401;28;20727;-74
2021/01/30 08:50:11;;;;;;;15.73;8.90;;;1.10;99.90;;;;;;5011166;28;20044;-75
2021/01/30 08:52:51;;;;;;;17.35;9.63;;;1.10;99.90;;;;;;5001842;28;20042;-75
2021/01/30 08:55:45;;;;;;;24.08;13.13;;;1.00;99.90;;;;;;5005547;28;20099;-73
2021/01/30 08:58:32;;;;;;;32.85;17.15;;;1.00;99.90;;;;;;5005209;28;20057;-74
2021/01/30 09:01:03;;;;;;;21.70;11.85;;;1.00;99.90;;;;;;4994749;28;20041;-75
2021/01/30 09:03:38;;;;;;;25.35;13.75;;;1.10;99.90;;;;;;4995663;28;20033;-76
2021/01/30 09:06:05;;;;;;;21.95;11.00;;;1.10;99.90;;;;;;4994520;28;20034;-72
2021/01/30 09:08:35;;;;;;;21.67;11.55;;;1.20;99.90;;;;;;4995860;28;20037;-74
2021/01/30 09:11:35;;;;;;;16.55;9.32;;;1.30;99.90;;;;;;4994248;28;20066;-74
2021/01/30 09:14:28;;;;;;;24.23;11.35;;;1.40;99.90;;;;;;4994506;28;20097;-74
2021/01/30 09:16:56;;;;;;;22.17;10.88;;;1.40;99.90;;;;;;4977556;28;20161;-74
2021/01/30 09:19:43;;;;;;;17.63;9.50;;;1.40;99.90;;;;;;5003811;28;20037;-75
2021/01/30 09:22:35;;;;;;;16.67;9.65;;;1.50;99.90;;;;;;4997202;28;20037;-75
2021/01/30 09:25:32;;;;;;;17.00;9.10;;;1.70;99.90;;;;;;5009164;28;20410;-75
2021/01/30 09:28:28;;;;;;;17.23;9.07;;;1.90;99.90;;;;;;4995036;28;20041;-75
2021/01/30 09:30:57;;;;;;;17.48;9.65;;;2.00;99.90;;;;;;4983351;28;20049;-75
2021/01/30 09:33:27;;;;;;;18.98;10.10;;;2.00;99.90;;;;;;5005633;28;20429;-74
2021/01/30 09:36:37;;;;;;;19.88;9.60;;;1.80;99.90;;;;;;5002934;28;20025;-74
2021/01/30 09:39:19;;;;;;;17.00;9.23;;;1.80;99.90;;;;;;4983115;28;20050;-75
2021/01/30 09:41:44;;;;;;;15.95;8.95;;;1.70;99.90;;;;;;4991784;28;20080;-74
2021/01/30 09:44:21;;;;;;;18.75;9.85;;;1.60;99.90;;;;;;4978218;28;20037;-75
2021/01/30 09:46:52;;;;;;;17.80;9.60;;;1.50;99.90;;;;;;5012027;28;20049;-74
2021/01/30 09:49:30;;;;;;;19.00;10.50;;;1.60;99.90;;;;;;4990020;28;20033;-74
2021/01/30 09:51:59;;;;;;;18.60;9.00;;;1.60;99.90;;;;;;4989450;28;20128;-75
2021/01/30 09:54:27;;;;;;;17.85;10.00;;;1.60;99.90;;;;;;4993176;28;20030;-75
2021/01/30 09:57:01;;;;;;;18.05;8.77;;;1.50;99.90;;;;;;5000812;28;20042;-76
2021/01/30 09:59:29;;;;;;;19.48;9.88;;;1.60;99.90;;;;;;5009076;28;20047;-73
2021/01/30 10:02:09;;;;;;;19.13;8.93;;;1.60;99.90;;;;;;5006681;28;20084;-73
2021/01/30 10:04:35;;;;;;;19.55;9.40;;;1.60;99.90;;;;;;4994601;28;20455;-73
2021/01/30 10:07:13;;;;;;;21.00;9.15;;;1.60;99.90;;;;;;4999422;28;20154;-73
2021/01/30 10:09:46;;;;;;;22.60;10.20;;;1.60;99.90;;;;;;4997784;28;20607;-73
2021/01/30 10:12:15;;;;;;;24.50;9.75;;;1.80;99.90;;;;;;4989935;28;20127;-73
2021/01/30 10:14:46;;;;;;;16.60;8.65;;;1.90;99.90;;;;;;4997358;28;20045;-74
2021/01/30 10:17:35;;;;;;;18.75;9.20;;;2.10;99.90;;;;;;5006369;28;20061;-74
2021/01/30 10:20:09;;;;;;;15.85;8.98;;;2.10;99.90;;;;;;5009249;28;20044;-75
2021/01/30 10:22:37;;;;;;;98.40;30.52;;;2.40;99.90;;;;;;5010299;28;20402;-74
2021/01/30 10:25:10;;;;;;;16.88;9.05;;;2.40;99.90;;;;;;5004404;28;20030;-74
2021/01/30 10:27:36;;;;;;;34.55;12.80;;;2.50;99.90;;;;;;4990167;28;20053;-75
2021/01/30 10:30:07;;;;;;;51.50;23.10;;;2.40;99.90;;;;;;4995394;28;20034;-74
2021/01/30 10:32:58;;;;;;;36.63;16.85;;;2.30;99.90;;;;;;5006600;28;20038;-76
2021/01/30 10:35:45;;;;;;;22.75;11.57;;;2.40;99.90;;;;;;4996663;28;20022;-74
2021/01/30 10:38:20;;;;;;;19.90;10.88;;;2.60;99.90;;;;;;5008788;28;20026;-74
2021/01/30 10:40:49;;;;;;;22.80;12.38;;;2.80;99.90;;;;;;4993456;28;20034;-74
2021/01/30 10:43:26;;;;;;;14.98;8.27;;;2.90;99.90;;;;;;4996322;28;20030;-74
2021/01/30 10:45:58;;;;;;;11.75;7.22;;;3.10;99.90;;;;;;4994129;28;20524;-74
2021/01/30 10:48:32;;;;;;;16.25;8.90;;;2.90;99.90;;;;;;4988286;28;20048;-74
2021/01/30 10:51:04;;;;;;;19.05;9.07;;;3.00;99.90;;;;;;4988811;28;20160;-74
2021/01/30 10:53:40;;;;;;;14.52;7.63;;;2.90;99.90;;;;;;5001360;28;20034;-74
2021/01/30 10:56:25;;;;;;;22.63;8.68;;;2.90;99.90;;;;;;4995242;28;20046;-75
2021/01/30 10:58:55;;;;;;;19.48;8.15;;;3.00;99.90;;;;;;4995245;28;20596;-75
2021/01/30 11:01:21;;;;;;;17.15;7.10;;;3.20;99.90;;;;;;4986734;28;20117;-75
2021/01/30 11:03:52;;;;;;;11.63;7.00;;;3.30;99.90;;;;;;5007908;28;20032;-74
2021/01/30 11:06:44;;;;;;;9.57;5.82;;;3.20;99.90;;;;;;4994982;28;20056;-73
2021/01/30 11:09:25;;;;;;;10.00;5.63;;;3.30;99.90;;;;;;4991285;28;20033;-74
2021/01/30 11:12:09;;;;;;;9.73;5.72;;;3.30;99.90;;;;;;4985869;28;20108;-74
2021/01/30 11:14:35;;;;;;;23.92;8.60;;;3.30;99.90;;;;;;4987623;28;20121;-74
2021/01/30 11:17:03;;;;;;;12.38;6.43;;;3.50;99.90;;;;;;4995456;28;20417;-74
2021/01/30 11:19:32;;;;;;;10.65;5.88;;;3.40;99.90;;;;;;4997271;28;20145;-74
2021/01/30 11:22:11;;;;;;;9.25;5.43;;;3.30;99.90;;;;;;5008526;28;20120;-74
2021/01/30 11:24:48;;;;;;;12.30;5.72;;;3.00;99.90;;;;;;5003277;28;20044;-74
2021/01/30 11:27:33;;;;;;;15.75;6.97;;;2.60;99.90;;;;;;5002675;28;20076;-74
2021/01/30 11:30:18;;;;;;;7.05;4.15;;;2.80;99.90;;;;;;4988541;28;20112;-73
2021/01/30 11:32:48;;;;;;;11.43;4.95;;;3.20;99.90;;;;;;4993793;28;20038;-72
2021/01/30 11:35:19;;;;;;;11.13;5.20;;;3.10;99.90;;;;;;5005866;28;20227;-71
2021/01/30 11:37:44;;;;;;;13.77;6.30;;;3.40;99.90;;;;;;4976429;28;20037;-71
2021/01/30 11:40:12;;;;;;;14.40;5.75;;;3.70;99.90;;;;;;5011474;28;20627;-74
2021/01/30 11:42:37;;;;;;;10.68;6.03;;;3.40;99.90;;;;;;4988765;28;20049;-72
2021/01/30 11:45:05;;;;;;;35.65;9.35;;;3.30;99.90;;;;;;5004173;28;20042;-72
2021/01/30 11:47:31;;;;;;;11.50;6.15;;;3.50;99.90;;;;;;4986549;28;20048;-72
2021/01/30 11:49:56;;;;;;;24.17;8.40;;;3.60;99.90;;;;;;4988246;28;20474;-72
2021/01/30 11:52:25;;;;;;;12.73;7.28;;;3.60;99.90;;;;;;4984881;28;20030;-72
2021/01/30 11:54:51;;;;;;;16.30;9.48;;;3.70;99.90;;;;;;4997731;28;20104;-72
2021/01/30 11:57:17;;;;;;;12.07;6.70;;;4.00;99.90;;;;;;4981972;28;20042;-72
2021/01/30 11:59:43;;;;;;;11.20;6.05;;;4.50;99.90;;;;;;4990441;28;20044;-72
2021/01/30 12:02:31;;;;;;;9.73;5.55;;;4.70;99.90;;;;;;4993193;28;20421;-72
2021/01/30 12:04:57;;;;;;;11.43;5.80;;;4.60;99.90;;;;;;5000178;28;20038;-72
2021/01/30 12:07:23;;;;;;;10.73;6.35;;;4.30;99.90;;;;;;4995152;28;20041;-72
2021/01/30 12:09:49;;;;;;;12.27;5.38;;;3.90;99.90;;;;;;5007464;28;20438;-72
2021/01/30 12:12:14;;;;;;;12.23;5.63;;;3.60;99.90;;;;;;4994035;28;20030;-73
2021/01/30 12:14:40;;;;;;;9.60;4.50;;;3.60;99.90;;;;;;5004547;28;20406;-72
2021/01/30 12:17:06;;;;;;;6.40;4.10;;;3.50;99.90;;;;;;4992127;28;20037;-72
2021/01/30 12:19:31;;;;;;;12.07;6.15;;;4.00;99.90;;;;;;5007495;28;20041;-74
2021/01/30 12:21:57;;;;;;;13.60;7.28;;;4.60;99.90;;;;;;5006257;28;20042;-71
2021/01/30 12:24:23;;;;;;;10.20;5.70;;;5.00;99.90;;;;;;4996565;28;20044;-72
2021/01/30 12:26:50;;;;;;;8.93;5.05;;;5.10;99.90;;;;;;5005634;28;20038;-72
2021/01/30 12:29:15;;;;;;;10.82;4.95;;;5.30;99.90;;;;;;5010532;28;20372;-72
2021/01/30 12:31:41;;;;;;;9.57;5.15;;;5.10;99.90;;;;;;5013752;28;20683;-72
2021/01/30 12:34:07;;;;;;;7.00;4.45;;;5.20;99.90;;;;;;4996125;28;20304;-72
2021/01/30 12:36:32;;;;;;;10.25;5.93;;;5.20;99.90;;;;;;5012580;28;20033;-72
2021/01/30 12:38:58;;;;;;;9.35;5.00;;;5.70;99.90;;;;;;4983417;28;20116;-72
2021/01/30 12:41:24;;;;;;;6.28;4.53;;;5.80;99.90;;;;;;4998794;28;20033;-72
2021/01/30 12:43:49;;;;;;;7.85;4.97;;;5.70;99.90;;;;;;5002179;28;20046;-72
2021/01/30 12:46:16;;;;;;;7.68;4.82;;;5.60;99.90;;;;;;4993335;28;20470;-72
2021/01/30 12:48:42;;;;;;;5.95;4.28;;;5.90;99.90;;;;;;4994866;28;20034;-72
2021/01/30 12:51:07;;;;;;;5.47;3.75;;;6.40;99.90;;;;;;4988567;28;20061;-73
2021/01/30 12:53:33;;;;;;;7.38;4.13;;;6.50;99.90;;;;;;4990441;28;20034;-73
2021/01/30 12:55:59;;;;;;;8.95;4.80;;;6.60;99.90;;;;;;4995587;28;20040;-72
2021/01/30 12:58:28;;;;;;;5.03;3.70;;;7.00;99.90;;;;;;4995030;28;20112;-72
2021/01/30 13:00:55;;;;;;;6.97;4.30;;;7.30;99.90;;;;;;4997506;28;20092;-73
2021/01/30 13:03:23;;;;;;;8.60;4.20;;;7.30;99.90;;;;;;4996662;28;20121;-73
2021/01/30 13:05:50;;;;;;;7.75;3.33;;;8.00;99.70;;;;;;4992344;28;20148;-73
2021/01/30 13:08:18;;;;;;;7.55;3.80;;;8.60;99.80;;;;;;5012949;28;20517;-73
2021/01/30 13:10:44;;;;;;;7.88;3.67;;;8.30;98.10;;;;;;4994402;28;20037;-76
2021/01/30 13:13:10;;;;;;;5.75;3.78;;;8.40;98.30;;;;;;5012892;28;20041;-73
2021/01/30 13:15:36;;;;;;;6.28;4.25;;;8.30;97.20;;;;;;4994002;28;20145;-73